Terminal Aerodrome Forecast
Issued by NWS Sioux Falls, SD

Home | Current Version | Previous Version | Text Only | Print | Product List | Glossary On
Versions: 1 2 3 4 5 6 7 8 9 10 11 12 13 14 15 16 17 18 19 20 21 22 23 24 25
000
FTUS43 KFSD 232327
TAFSUX
TAF
KSUX 232327Z 2400/2424 33020G28KT P6SM BKN120
     FM240700 33020G30KT P6SM SCT040
     FM241500 33023G32KT P6SM FEW030
     FM242300 33017KT P6SM SKC=

USA.gov is the U.S. government's official web portal to all federal, state and local government web resources and services.